Time;durP1;ratioP1;P1;durP2;ratioP2;P2;SDS_P1;SDS_P2;PMS_P1;PMS_P2;Temp;Humidity;BMP_temperature;BMP_pressure;BME280_temperature;BME280_humidity;BME280_pressure;Samples;Min_cycle;Max_cycle;Signal;HPM_P1;HPM_P2
2024/01/23 00:01:14;;;;;;;10.95;7.63;;;;;;;;;;5078712;28;20507;-82
2024/01/23 00:03:39;;;;;;;13.23;8.90;;;;;;;;;;5097263;28;20024;-82
2024/01/23 00:06:05;;;;;;;12.68;8.48;;;;;;;;;;5100516;28;20027;-81
2024/01/23 00:08:30;;;;;;;18.80;10.30;;;;;;;;;;5107267;28;20098;-82
2024/01/23 00:10:56;;;;;;;13.30;9.63;;;;;;;;;;5099409;28;20055;-83
2024/01/23 00:13:21;;;;;;;15.75;9.68;;;;;;;;;;5098509;28;20069;-83
2024/01/23 00:15:46;;;;;;;12.65;9.10;;;;;;;;;;5101259;28;20107;-83
2024/01/23 00:18:11;;;;;;;12.88;8.27;;;;;;;;;;5103054;28;20024;-82
2024/01/23 00:20:37;;;;;;;15.27;9.35;;;;;;;;;;5103700;28;20028;-82
2024/01/23 00:23:02;;;;;;;15.15;10.75;;;;;;;;;;5082128;28;20027;-82
2024/01/23 00:25:27;;;;;;;16.45;10.48;;;;;;;;;;5096083;28;20438;-82
2024/01/23 00:27:53;;;;;;;16.23;9.98;;;;;;;;;;5096074;28;20027;-82
2024/01/23 00:30:18;;;;;;;18.83;10.68;;;;;;;;;;5095938;28;20035;-84
2024/01/23 00:32:43;;;;;;;16.63;10.32;;;;;;;;;;5078546;28;20403;-81
2024/01/23 00:35:08;;;;;;;17.58;10.43;;;;;;;;;;5096629;28;20016;-83
2024/01/23 00:37:34;;;;;;;14.63;9.65;;;;;;;;;;5096009;28;20019;-82
2024/01/23 00:40:01;;;;;;;14.30;9.63;;;;;;;;;;5095977;28;20481;-82
2024/01/23 00:42:26;;;;;;;15.55;9.77;;;;;;;;;;5095841;28;20024;-84
2024/01/23 00:44:53;;;;;;;15.20;9.52;;;;;;;;;;5095664;28;20068;-82
2024/01/23 00:47:18;;;;;;;13.18;8.73;;;;;;;;;;5096140;28;20016;-81
2024/01/23 00:49:44;;;;;;;16.10;9.30;;;;;;;;;;5095787;28;20019;-81
2024/01/23 00:52:09;;;;;;;15.07;8.93;;;;;;;;;;5095852;28;20023;-81
2024/01/23 00:54:34;;;;;;;14.35;9.30;;;;;;;;;;5095945;28;20012;-82
2024/01/23 00:57:00;;;;;;;14.35;8.95;;;;;;;;;;5095565;28;20016;-81
2024/01/23 00:59:25;;;;;;;13.88;9.73;;;;;;;;;;5095772;28;20099;-82
2024/01/23 01:01:50;;;;;;;15.68;9.13;;;;;;;;;;5077281;28;20048;-82
2024/01/23 01:04:16;;;;;;;13.35;9.40;;;;;;;;;;5095790;28;20484;-83
2024/01/23 01:06:41;;;;;;;14.60;9.05;;;;;;;;;;5096337;28;20016;-82
2024/01/23 01:09:07;;;;;;;13.50;9.30;;;;;;;;;;5096112;28;20027;-81
2024/01/23 01:11:33;;;;;;;13.23;9.32;;;;;;;;;;5077353;28;20070;-82
2024/01/23 01:13:58;;;;;;;12.02;8.55;;;;;;;;;;5095626;28;20023;-82
2024/01/23 01:16:23;;;;;;;13.52;8.73;;;;;;;;;;5095868;28;20021;-82
2024/01/23 01:18:49;;;;;;;12.63;9.55;;;;;;;;;;5095682;28;20020;-82
2024/01/23 01:21:14;;;;;;;15.05;8.85;;;;;;;;;;5095328;28;20017;-82
2024/01/23 01:23:39;;;;;;;13.60;9.07;;;;;;;;;;5076555;28;20016;-81
2024/01/23 01:26:04;;;;;;;14.00;8.93;;;;;;;;;;5073289;28;20459;-81
2024/01/23 01:28:30;;;;;;;13.85;8.30;;;;;;;;;;5074529;28;20521;-82
2024/01/23 01:30:55;;;;;;;16.65;7.93;;;;;;;;;;5073185;28;20028;-82
2024/01/23 01:33:21;;;;;;;13.80;8.68;;;;;;;;;;5074660;28;20347;-82
2024/01/23 01:35:46;;;;;;;9.48;7.13;;;;;;;;;;5074650;28;20122;-82
2024/01/23 01:38:11;;;;;;;13.90;7.32;;;;;;;;;;5074638;28;20091;-81
2024/01/23 01:40:36;;;;;;;12.43;7.45;;;;;;;;;;5073238;28;20019;-83
2024/01/23 01:43:02;;;;;;;11.10;6.88;;;;;;;;;;5074474;28;20466;-84
2024/01/23 01:45:27;;;;;;;10.13;7.07;;;;;;;;;;5074563;28;20524;-83
2024/01/23 01:47:53;;;;;;;10.25;7.65;;;;;;;;;;5074940;28;20025;-82
2024/01/23 01:50:18;;;;;;;11.90;7.70;;;;;;;;;;5074406;28;20028;-82
2024/01/23 01:52:44;;;;;;;11.73;7.70;;;;;;;;;;5074348;28;20138;-81
2024/01/23 01:55:09;;;;;;;15.13;8.23;;;;;;;;;;5074098;28;20016;-81
2024/01/23 01:57:39;;;;;;;10.70;8.00;;;;;;;;;;5074125;28;20013;-81
2024/01/23 02:00:06;;;;;;;12.18;8.85;;;;;;;;;;5074566;28;20017;-82
2024/01/23 02:02:31;;;;;;;15.20;8.45;;;;;;;;;;5072929;28;20376;-83
2024/01/23 02:04:56;;;;;;;11.55;7.72;;;;;;;;;;5074153;28;20099;-83
2024/01/23 02:07:22;;;;;;;13.77;8.55;;;;;;;;;;5074434;28;20017;-82
2024/01/23 02:09:47;;;;;;;12.10;8.60;;;;;;;;;;5072680;28;20021;-81
2024/01/23 02:12:12;;;;;;;12.38;8.95;;;;;;;;;;5073874;28;20016;-82
2024/01/23 02:14:38;;;;;;;10.88;8.45;;;;;;;;;;5074152;28;20023;-81
2024/01/23 02:17:03;;;;;;;12.00;7.50;;;;;;;;;;5074527;28;20040;-82
2024/01/23 02:19:29;;;;;;;11.30;8.38;;;;;;;;;;5075197;28;20048;-81
2024/01/23 02:21:54;;;;;;;16.70;9.07;;;;;;;;;;5075739;28;20032;-82
2024/01/23 02:24:19;;;;;;;10.98;7.97;;;;;;;;;;5075319;28;20017;-80
2024/01/23 02:26:45;;;;;;;13.75;8.13;;;;;;;;;;5086491;28;20488;-80
2024/01/23 02:29:11;;;;;;;13.13;8.07;;;;;;;;;;5094310;28;20505;-81
2024/01/23 02:31:36;;;;;;;12.77;8.30;;;;;;;;;;5094050;28;20028;-81
2024/01/23 02:34:01;;;;;;;12.77;8.95;;;;;;;;;;5075578;28;20458;-82
2024/01/23 02:36:27;;;;;;;10.77;8.68;;;;;;;;;;5093259;28;20024;-82
2024/01/23 02:38:52;;;;;;;12.55;8.80;;;;;;;;;;5094014;28;20425;-82
2024/01/23 02:41:17;;;;;;;12.82;7.60;;;;;;;;;;5094302;28;20031;-81
2024/01/23 02:43:43;;;;;;;13.13;8.63;;;;;;;;;;5094161;28;20035;-81
2024/01/23 02:46:08;;;;;;;16.75;8.90;;;;;;;;;;5094826;28;20111;-81
2024/01/23 02:48:33;;;;;;;13.90;8.60;;;;;;;;;;5078952;28;20022;-81
2024/01/23 02:50:59;;;;;;;14.00;9.27;;;;;;;;;;5097734;28;20056;-81
2024/01/23 02:53:24;;;;;;;16.88;9.52;;;;;;;;;;5101645;28;20016;-81
2024/01/23 02:55:49;;;;;;;13.20;9.07;;;;;;;;;;5105927;28;20073;-83
2024/01/23 02:58:17;;;;;;;13.20;9.02;;;;;;;;;;5110276;28;20051;-82
2024/01/23 03:00:43;;;;;;;16.63;8.80;;;;;;;;;;5104668;28;20048;-82
2024/01/23 03:03:08;;;;;;;15.23;9.68;;;;;;;;;;5104076;28;20480;-81
2024/01/23 03:05:34;;;;;;;13.48;8.15;;;;;;;;;;5103884;28;20080;-81
2024/01/23 03:07:59;;;;;;;13.48;8.85;;;;;;;;;;5103718;28;20023;-83
2024/01/23 03:10:24;;;;;;;13.40;9.55;;;;;;;;;;5086757;28;20028;-81
2024/01/23 03:12:50;;;;;;;14.63;8.93;;;;;;;;;;5094591;28;20101;-82
2024/01/23 03:15:15;;;;;;;13.65;8.02;;;;;;;;;;5106610;28;20042;-81
2024/01/23 03:17:40;;;;;;;14.88;8.48;;;;;;;;;;5106097;28;20019;-81
2024/01/23 03:20:06;;;;;;;15.50;8.80;;;;;;;;;;5076912;28;20028;-82
2024/01/23 03:22:31;;;;;;;14.95;9.07;;;;;;;;;;5075499;28;20164;-82
2024/01/23 03:24:56;;;;;;;13.50;8.57;;;;;;;;;;5092227;28;20027;-82
2024/01/23 03:27:22;;;;;;;12.27;7.63;;;;;;;;;;5093227;28;20087;-81
2024/01/23 03:29:47;;;;;;;12.35;8.80;;;;;;;;;;5093606;28;20027;-81
2024/01/23 03:32:13;;;;;;;12.75;8.10;;;;;;;;;;5093629;28;20026;-81
2024/01/23 03:34:38;;;;;;;13.68;7.88;;;;;;;;;;5093509;28;20027;-82
2024/01/23 03:37:04;;;;;;;12.32;7.82;;;;;;;;;;5093439;28;20023;-83
2024/01/23 03:39:29;;;;;;;13.57;7.95;;;;;;;;;;5093145;28;20032;-81
2024/01/23 03:41:55;;;;;;;13.02;7.60;;;;;;;;;;5075407;28;20032;-82
2024/01/23 03:44:21;;;;;;;12.25;8.02;;;;;;;;;;5095260;28;20023;-82
2024/01/23 03:46:46;;;;;;;10.75;7.95;;;;;;;;;;5079089;28;20047;-83
2024/01/23 03:49:12;;;;;;;16.80;8.00;;;;;;;;;;5098894;28;20024;-81
2024/01/23 03:51:37;;;;;;;11.82;7.70;;;;;;;;;;5099022;28;20092;-81
2024/01/23 03:54:03;;;;;;;11.50;7.20;;;;;;;;;;5081891;28;20441;-83
2024/01/23 03:56:28;;;;;;;11.43;7.20;;;;;;;;;;5099406;28;20023;-82
2024/01/23 03:58:53;;;;;;;10.20;7.20;;;;;;;;;;5099377;28;20020;-81
2024/01/23 04:01:18;;;;;;;10.77;7.63;;;;;;;;;;5099555;28;20024;-82
2024/01/23 04:03:44;;;;;;;10.23;7.88;;;;;;;;;;5087513;28;20052;-84
2024/01/23 04:06:09;;;;;;;10.27;7.35;;;;;;;;;;5090741;28;20020;-82
2024/01/23 04:08:35;;;;;;;12.63;7.50;;;;;;;;;;5104940;28;20016;-82
2024/01/23 04:11:00;;;;;;;16.10;7.80;;;;;;;;;;5107641;28;20024;-82
2024/01/23 04:13:25;;;;;;;15.25;7.90;;;;;;;;;;5098323;28;20024;-83
2024/01/23 04:15:50;;;;;;;12.38;7.22;;;;;;;;;;5100246;28;20571;-82
2024/01/23 04:18:17;;;;;;;12.07;6.85;;;;;;;;;;5099319;28;20020;-82
2024/01/23 04:20:42;;;;;;;11.65;7.15;;;;;;;;;;5098608;28;20036;-82
2024/01/23 04:23:07;;;;;;;10.93;7.13;;;;;;;;;;5079815;28;20020;-82
2024/01/23 04:25:33;;;;;;;11.65;7.20;;;;;;;;;;5097622;28;20027;-82
2024/01/23 04:27:58;;;;;;;13.85;7.82;;;;;;;;;;5097114;28;20493;-80
2024/01/23 04:30:25;;;;;;;11.75;7.72;;;;;;;;;;5097104;28;20103;-82
2024/01/23 04:32:50;;;;;;;8.85;6.60;;;;;;;;;;5097239;28;20051;-82
2024/01/23 04:35:16;;;;;;;12.68;6.88;;;;;;;;;;5096846;28;20016;-82
2024/01/23 04:37:41;;;;;;;13.52;7.80;;;;;;;;;;5079243;28;20054;-83
2024/01/23 04:40:08;;;;;;;12.13;7.43;;;;;;;;;;5078835;28;20052;-84
2024/01/23 04:42:33;;;;;;;16.60;7.18;;;;;;;;;;5078707;28;20473;-82
2024/01/23 04:44:59;;;;;;;11.27;7.72;;;;;;;;;;5097547;28;20027;-81
2024/01/23 04:47:25;;;;;;;13.50;6.82;;;;;;;;;;5078704;28;20024;-80
2024/01/23 04:49:50;;;;;;;9.20;7.15;;;;;;;;;;5097261;28;20019;-82
2024/01/23 04:52:16;;;;;;;9.18;6.95;;;;;;;;;;5096721;28;20016;-82
2024/01/23 04:54:42;;;;;;;10.90;7.00;;;;;;;;;;5096623;28;20024;-82
2024/01/23 04:57:08;;;;;;;11.82;6.35;;;;;;;;;;5098311;28;20016;-81
2024/01/23 04:59:33;;;;;;;13.30;6.35;;;;;;;;;;5098969;28;20050;-81
2024/01/23 05:01:58;;;;;;;13.57;7.00;;;;;;;;;;5099642;28;20020;-81
2024/01/23 05:04:23;;;;;;;11.18;6.30;;;;;;;;;;5101839;28;20051;-81
2024/01/23 05:06:49;;;;;;;12.73;6.93;;;;;;;;;;5096685;28;20480;-81
2024/01/23 05:09:14;;;;;;;9.77;5.95;;;;;;;;;;5089720;28;20016;-81
2024/01/23 05:11:40;;;;;;;7.93;6.07;;;;;;;;;;5096321;28;20089;-84
2024/01/23 05:14:05;;;;;;;9.68;5.82;;;;;;;;;;5113230;28;20042;-82
2024/01/23 05:16:31;;;;;;;10.23;6.28;;;;;;;;;;5112716;28;20103;-84
2024/01/23 05:18:56;;;;;;;12.15;6.65;;;;;;;;;;5107106;28;20024;-82
2024/01/23 05:21:21;;;;;;;9.63;6.53;;;;;;;;;;5105346;28;20016;-81
2024/01/23 05:23:47;;;;;;;9.95;6.57;;;;;;;;;;5103516;28;20054;-82
2024/01/23 05:26:12;;;;;;;11.60;6.78;;;;;;;;;;5100252;28;20040;-81
2024/01/23 05:28:37;;;;;;;14.32;8.45;;;;;;;;;;5098569;28;20046;-82
2024/01/23 05:31:03;;;;;;;11.68;7.43;;;;;;;;;;5102489;28;20032;-83
2024/01/23 05:33:28;;;;;;;15.30;8.55;;;;;;;;;;5100572;28;20024;-82
2024/01/23 05:35:53;;;;;;;15.43;8.30;;;;;;;;;;5114303;28;20020;-83
2024/01/23 05:38:19;;;;;;;17.20;7.95;;;;;;;;;;5115357;28;20023;-80
2024/01/23 05:40:44;;;;;;;15.85;8.57;;;;;;;;;;5109064;28;20480;-81
2024/01/23 05:43:09;;;;;;;19.48;8.93;;;;;;;;;;5104141;28;20055;-82
2024/01/23 05:45:34;;;;;;;14.05;7.65;;;;;;;;;;5101678;28;20030;-82
2024/01/23 05:48:00;;;;;;;14.52;8.52;;;;;;;;;;5098691;28;20452;-80
2024/01/23 05:50:25;;;;;;;18.30;8.50;;;;;;;;;;5101956;28;20079;-82
2024/01/23 05:52:50;;;;;;;13.20;7.97;;;;;;;;;;5101367;28;20024;-81
2024/01/23 05:55:15;;;;;;;16.92;7.97;;;;;;;;;;5095785;28;20453;-82
2024/01/23 05:57:41;;;;;;;14.55;7.65;;;;;;;;;;5093419;28;20023;-85
2024/01/23 06:00:09;;;;;;;13.90;7.00;;;;;;;;;;5094943;28;20027;-82
2024/01/23 06:02:34;;;;;;;16.02;6.90;;;;;;;;;;5094979;28;20020;-83
2024/01/23 06:05:00;;;;;;;11.27;6.55;;;;;;;;;;5094366;28;20027;-82
2024/01/23 06:07:25;;;;;;;15.63;5.63;;;;;;;;;;5094584;28;20024;-82
2024/01/23 06:09:50;;;;;;;18.17;6.20;;;;;;;;;;5094336;28;20055;-82
2024/01/23 06:12:16;;;;;;;16.75;5.57;;;;;;;;;;5076858;28;20026;-81
2024/01/23 06:14:41;;;;;;;12.73;5.45;;;;;;;;;;5094982;28;20369;-81
2024/01/23 06:17:07;;;;;;;11.70;4.90;;;;;;;;;;5076297;28;20027;-81
2024/01/23 06:19:33;;;;;;;11.45;5.63;;;;;;;;;;5094561;28;20069;-84
2024/01/23 06:21:58;;;;;;;10.60;5.22;;;;;;;;;;5096491;28;20040;-82
2024/01/23 06:24:23;;;;;;;7.32;5.25;;;;;;;;;;5096061;28;20020;-81
2024/01/23 06:26:48;;;;;;;9.05;5.25;;;;;;;;;;5094350;28;20047;-83
2024/01/23 06:29:14;;;;;;;11.40;5.50;;;;;;;;;;5094329;28;20031;-83
2024/01/23 06:31:41;;;;;;;10.43;5.30;;;;;;;;;;5075808;28;20115;-82
2024/01/23 06:34:06;;;;;;;8.68;4.63;;;;;;;;;;5095003;28;20522;-82
2024/01/23 06:36:31;;;;;;;13.48;5.18;;;;;;;;;;5095982;28;20036;-81
2024/01/23 06:38:57;;;;;;;10.95;5.47;;;;;;;;;;5094673;28;20035;-81
2024/01/23 06:41:23;;;;;;;10.13;5.72;;;;;;;;;;5094525;28;20024;-82
2024/01/23 06:43:49;;;;;;;9.32;6.07;;;;;;;;;;5094951;28;20069;-83
2024/01/23 06:46:14;;;;;;;13.85;6.05;;;;;;;;;;5094806;28;20095;-81
2024/01/23 06:48:39;;;;;;;17.30;5.43;;;;;;;;;;5094198;28;20024;-81
2024/01/23 06:51:04;;;;;;;13.35;5.53;;;;;;;;;;5093498;28;20035;-82
2024/01/23 06:53:30;;;;;;;12.18;5.03;;;;;;;;;;5093462;28;20016;-82
2024/01/23 06:55:55;;;;;;;11.65;4.85;;;;;;;;;;5075377;28;20016;-83
2024/01/23 06:58:20;;;;;;;9.15;3.97;;;;;;;;;;5075399;28;20194;-82
2024/01/23 07:00:45;;;;;;;15.00;4.45;;;;;;;;;;5093575;28;20093;-82
2024/01/23 07:03:11;;;;;;;10.25;4.55;;;;;;;;;;5093580;28;20198;-81
2024/01/23 07:05:36;;;;;;;15.30;5.38;;;;;;;;;;5093477;28;20109;-82
2024/01/23 07:08:03;;;;;;;14.52;4.47;;;;;;;;;;5093413;28;20095;-82
2024/01/23 07:10:28;;;;;;;10.60;4.47;;;;;;;;;;5093986;28;20358;-83
2024/01/23 07:12:53;;;;;;;8.77;4.15;;;;;;;;;;5094699;28;20028;-82
2024/01/23 07:15:19;;;;;;;9.23;3.65;;;;;;;;;;5097328;28;20023;-83
2024/01/23 07:17:44;;;;;;;10.23;4.05;;;;;;;;;;5083463;28;20016;-84
2024/01/23 07:20:10;;;;;;;9.30;4.10;;;;;;;;;;5097291;28;20043;-82
2024/01/23 07:22:36;;;;;;;14.02;4.40;;;;;;;;;;5098268;28;20484;-82
2024/01/23 07:25:01;;;;;;;14.15;5.20;;;;;;;;;;5102660;28;20024;-82
2024/01/23 07:27:27;;;;;;;10.25;3.97;;;;;;;;;;5099159;28;20044;-82
2024/01/23 07:29:52;;;;;;;13.00;4.10;;;;;;;;;;5099267;28;20023;-82
2024/01/23 07:32:17;;;;;;;12.00;3.90;;;;;;;;;;5086036;28;20096;-81
2024/01/23 07:34:43;;;;;;;8.38;3.58;;;;;;;;;;5103614;28;20027;-84
2024/01/23 07:37:08;;;;;;;10.25;4.15;;;;;;;;;;5105400;28;20058;-82
2024/01/23 07:39:33;;;;;;;14.93;4.03;;;;;;;;;;5105039;28;20158;-82
2024/01/23 07:41:59;;;;;;;19.05;4.38;;;;;;;;;;5098293;28;20028;-83
2024/01/23 07:44:24;;;;;;;34.30;5.80;;;;;;;;;;5097722;28;20024;-82
2024/01/23 07:46:49;;;;;;;19.55;4.60;;;;;;;;;;5098010;28;20027;-81
2024/01/23 07:49:14;;;;;;;18.45;4.80;;;;;;;;;;5079397;28;20020;-83
2024/01/23 07:51:46;;;;;;;18.23;4.78;;;;;;;;;;5079406;28;20482;-82
2024/01/23 07:54:12;;;;;;;53.20;8.40;;;;;;;;;;5097380;28;20024;-83
2024/01/23 07:56:37;;;;;;;31.17;6.45;;;;;;;;;;5097179;28;20016;-84
2024/01/23 07:59:02;;;;;;;33.83;6.28;;;;;;;;;;5079144;28;20020;-83
2024/01/23 08:01:27;;;;;;;23.35;5.82;;;;;;;;;;5097338;28;20089;-82
2024/01/23 08:03:53;;;;;;;11.57;4.35;;;;;;;;;;5097633;28;20110;-82
2024/01/23 08:06:18;;;;;;;10.82;3.58;;;;;;;;;;5097690;28;20089;-83
2024/01/23 08:08:44;;;;;;;11.45;3.65;;;;;;;;;;5097695;28;20458;-83
2024/01/23 08:11:10;;;;;;;9.85;3.65;;;;;;;;;;5097923;28;20027;-85
2024/01/23 08:13:36;;;;;;;9.45;3.92;;;;;;;;;;5099142;28;20020;-82
2024/01/23 08:16:01;;;;;;;7.30;3.65;;;;;;;;;;5102400;28;20031;-82
2024/01/23 08:18:26;;;;;;;9.27;3.25;;;;;;;;;;5111146;28;20020;-83
2024/01/23 08:20:52;;;;;;;9.82;3.33;;;;;;;;;;5113222;28;20023;-84
2024/01/23 08:23:17;;;;;;;9.95;3.13;;;;;;;;;;5112456;28;20020;-82
2024/01/23 08:25:45;;;;;;;10.68;3.53;;;;;;;;;;5114593;28;20028;-82
2024/01/23 08:28:10;;;;;;;10.98;4.22;;;;;;;;;;5109940;28;20048;-83
2024/01/23 08:30:35;;;;;;;6.30;2.97;;;;;;;;;;5086327;28;20542;-83
2024/01/23 08:33:02;;;;;;;5.75;2.58;;;;;;;;;;5096734;28;20020;-84
2024/01/23 08:35:27;;;;;;;8.15;2.33;;;;;;;;;;5097289;28;20070;-83
2024/01/23 08:37:53;;;;;;;6.20;2.50;;;;;;;;;;5098513;28;20016;-83
2024/01/23 08:40:18;;;;;;;7.38;2.42;;;;;;;;;;5098575;28;20377;-83
2024/01/23 08:42:43;;;;;;;4.65;2.35;;;;;;;;;;5100974;28;20464;-83
2024/01/23 08:45:09;;;;;;;6.03;2.58;;;;;;;;;;5097477;28;20032;-83
2024/01/23 08:47:34;;;;;;;7.57;2.38;;;;;;;;;;5097167;28;20401;-82
2024/01/23 08:49:59;;;;;;;7.22;2.30;;;;;;;;;;5096826;28;20031;-81
2024/01/23 08:52:25;;;;;;;4.38;1.73;;;;;;;;;;5094871;28;20036;-82
2024/01/23 08:54:50;;;;;;;5.35;2.17;;;;;;;;;;5096309;28;20024;-83
2024/01/23 08:57:17;;;;;;;6.47;2.38;;;;;;;;;;5096092;28;20027;-82
2024/01/23 08:59:43;;;;;;;4.93;2.00;;;;;;;;;;5097616;28;20024;-82
2024/01/23 09:02:10;;;;;;;4.75;2.13;;;;;;;;;;5099241;28;20024;-82
2024/01/23 09:04:37;;;;;;;5.38;1.98;;;;;;;;;;5097095;28;20016;-81
2024/01/23 09:07:03;;;;;;;5.15;1.73;;;;;;;;;;5096466;28;20024;-82
2024/01/23 09:09:28;;;;;;;6.00;2.10;;;;;;;;;;5096711;28;20035;-83
2024/01/23 09:11:53;;;;;;;6.90;1.95;;;;;;;;;;5078091;28;20024;-83
2024/01/23 09:14:19;;;;;;;10.48;2.40;;;;;;;;;;5078174;28;20012;-81
2024/01/23 09:16:44;;;;;;;5.22;2.20;;;;;;;;;;5095983;28;20020;-82
2024/01/23 09:19:10;;;;;;;9.48;2.20;;;;;;;;;;5077646;28;20030;-83
2024/01/23 09:21:35;;;;;;;7.35;2.28;;;;;;;;;;5095149;28;20496;-83
2024/01/23 09:24:00;;;;;;;10.70;2.45;;;;;;;;;;5095242;28;20016;-82
2024/01/23 09:26:25;;;;;;;5.90;2.40;;;;;;;;;;5095188;28;20093;-83
2024/01/23 09:28:51;;;;;;;5.57;2.17;;;;;;;;;;5095161;28;20022;-84
2024/01/23 09:31:16;;;;;;;7.13;2.20;;;;;;;;;;5095110;28;20032;-83
2024/01/23 09:33:41;;;;;;;6.38;1.98;;;;;;;;;;5095138;28;20465;-84
2024/01/23 09:36:08;;;;;;;9.20;2.45;;;;;;;;;;5095343;28;20059;-83
2024/01/23 09:38:33;;;;;;;10.70;2.53;;;;;;;;;;5095164;28;20012;-83
2024/01/23 09:41:04;;;;;;;9.32;2.03;;;;;;;;;;5095340;28;20031;-82
2024/01/23 09:43:29;;;;;;;6.55;1.95;;;;;;;;;;5095109;28;20051;-83
2024/01/23 09:45:55;;;;;;;12.60;2.35;;;;;;;;;;5095283;28;20024;-83
2024/01/23 09:48:21;;;;;;;10.18;2.53;;;;;;;;;;5094890;28;20368;-83
2024/01/23 09:50:46;;;;;;;8.02;2.42;;;;;;;;;;5095211;28;20023;-82
2024/01/23 09:53:12;;;;;;;13.25;2.50;;;;;;;;;;5095922;28;20028;-83
2024/01/23 09:55:37;;;;;;;7.72;2.15;;;;;;;;;;5077854;28;20020;-84
2024/01/23 09:58:03;;;;;;;20.23;2.78;;;;;;;;;;5087140;28;20110;-82
2024/01/23 10:00:29;;;;;;;11.15;3.20;;;;;;;;;;5105708;28;20163;-83
2024/01/23 10:02:55;;;;;;;9.80;3.28;;;;;;;;;;5086140;28;20027;-84
2024/01/23 10:05:21;;;;;;;13.35;4.15;;;;;;;;;;5098266;28;20090;-82
2024/01/23 10:07:47;;;;;;;8.95;4.03;;;;;;;;;;5095205;28;20043;-83
2024/01/23 10:10:14;;;;;;;7.30;2.83;;;;;;;;;;5077039;28;20393;-83
2024/01/23 10:12:45;;;;;;;7.95;2.55;;;;;;;;;;5095404;28;20009;-84
2024/01/23 10:15:12;;;;;;;6.63;2.50;;;;;;;;;;5095372;28;20023;-82
2024/01/23 10:17:38;;;;;;;8.00;2.38;;;;;;;;;;5095255;28;20531;-82
2024/01/23 10:20:05;;;;;;;9.35;2.53;;;;;;;;;;5095593;28;20012;-83
2024/01/23 10:22:30;;;;;;;10.82;3.40;;;;;;;;;;5076990;28;20107;-83
2024/01/23 10:24:55;;;;;;;8.23;2.63;;;;;;;;;;5095863;28;20048;-82
2024/01/23 10:27:21;;;;;;;7.78;2.30;;;;;;;;;;5095103;28;20059;-83
2024/01/23 10:29:46;;;;;;;13.48;2.55;;;;;;;;;;5095084;28;20095;-84
2024/01/23 10:32:11;;;;;;;7.28;2.92;;;;;;;;;;5076852;28;20034;-83
2024/01/23 10:34:36;;;;;;;9.23;2.38;;;;;;;;;;5094330;28;20443;-83
2024/01/23 10:37:02;;;;;;;12.77;2.65;;;;;;;;;;5094359;28;20027;-82
2024/01/23 10:39:27;;;;;;;8.23;2.28;;;;;;;;;;5076216;28;20111;-82
2024/01/23 10:41:53;;;;;;;5.72;1.88;;;;;;;;;;5094496;28;20457;-82
2024/01/23 10:44:21;;;;;;;6.38;2.28;;;;;;;;;;5094205;28;20012;-83
2024/01/23 10:46:48;;;;;;;7.43;2.55;;;;;;;;;;5094109;28;20488;-84
2024/01/23 10:49:13;;;;;;;9.27;2.05;;;;;;;;;;5094161;28;20031;-84
2024/01/23 10:51:39;;;;;;;8.00;2.40;;;;;;;;;;5094594;28;20039;-83
2024/01/23 10:54:08;;;;;;;4.75;2.30;;;;;;;;;;5094253;28;20457;-84
2024/01/23 10:56:37;;;;;;;4.38;2.30;;;;;;;;;;5076466;28;20016;-84
2024/01/23 10:59:04;;;;;;;4.53;1.98;;;;;;;;;;5098984;28;20016;-82
2024/01/23 11:01:34;;;;;;;8.65;2.60;;;;;;;;;;5101638;28;20031;-82
2024/01/23 11:04:00;;;;;;;8.65;2.92;;;;;;;;;;5085686;28;20024;-84
2024/01/23 11:06:28;;;;;;;7.40;2.17;;;;;;;;;;5105199;28;20473;-84
2024/01/23 11:09:02;;;;;;;6.93;1.80;;;;;;;;;;5104812;28;20023;-85
2024/01/23 11:11:43;;;;;;;6.25;2.22;;;;;;;;;;5110664;28;20081;-83
2024/01/23 11:14:20;;;;;;;10.90;3.50;;;;;;;;;;5081961;28;20020;-82
2024/01/23 11:17:06;;;;;;;9.77;2.10;;;;;;;;;;5083538;28;20023;-83
2024/01/23 11:19:35;;;;;;;12.95;2.70;;;;;;;;;;5085267;28;20046;-83
2024/01/23 11:22:03;;;;;;;6.70;2.20;;;;;;;;;;5100033;28;20560;-83
2024/01/23 11:24:38;;;;;;;7.60;2.72;;;;;;;;;;5080835;28;20044;-83
2024/01/23 11:27:04;;;;;;;11.98;3.28;;;;;;;;;;5093820;28;20044;-83
2024/01/23 11:29:29;;;;;;;6.90;2.45;;;;;;;;;;5093742;28;20023;-84
2024/01/23 11:31:56;;;;;;;9.80;2.65;;;;;;;;;;5093713;28;20032;-84
2024/01/23 11:34:27;;;;;;;9.43;2.08;;;;;;;;;;5093735;28;20024;-84
2024/01/23 11:36:53;;;;;;;11.70;2.95;;;;;;;;;;5093713;28;20108;-83
2024/01/23 11:39:27;;;;;;;14.70;2.53;;;;;;;;;;5093508;28;20051;-84
2024/01/23 11:41:55;;;;;;;12.75;2.28;;;;;;;;;;5093838;28;20089;-83
2024/01/23 11:44:21;;;;;;;11.52;2.70;;;;;;;;;;5093806;28;20016;-84
2024/01/23 11:46:47;;;;;;;11.77;2.80;;;;;;;;;;5096739;28;20080;-84
2024/01/23 11:49:13;;;;;;;6.75;2.85;;;;;;;;;;5099997;28;20023;-83
2024/01/23 11:51:39;;;;;;;7.15;1.65;;;;;;;;;;5100924;28;20020;-85
2024/01/23 11:54:11;;;;;;;7.65;2.35;;;;;;;;;;5098353;28;20012;-82
2024/01/23 11:56:37;;;;;;;15.65;2.63;;;;;;;;;;5105594;28;20358;-83
2024/01/23 11:59:02;;;;;;;7.10;2.58;;;;;;;;;;5090583;28;20031;-82
2024/01/23 12:01:29;;;;;;;3.97;2.20;;;;;;;;;;5089370;28;20424;-84
2024/01/23 12:03:55;;;;;;;4.45;1.90;;;;;;;;;;5094551;28;20035;-84
2024/01/23 12:06:21;;;;;;;8.77;1.92;;;;;;;;;;5094723;28;20373;-83
2024/01/23 12:08:46;;;;;;;10.95;2.40;;;;;;;;;;5078694;28;20028;-83
2024/01/23 12:11:18;;;;;;;10.15;2.20;;;;;;;;;;5097460;28;20024;-82
2024/01/23 12:13:44;;;;;;;8.18;2.55;;;;;;;;;;5096891;28;20012;-84
2024/01/23 12:16:10;;;;;;;6.43;1.88;;;;;;;;;;5078481;28;20019;-84
2024/01/23 12:18:35;;;;;;;8.82;2.22;;;;;;;;;;5096611;28;20020;-83
2024/01/23 12:21:01;;;;;;;9.88;2.85;;;;;;;;;;5096868;28;20024;-84
2024/01/23 12:23:26;;;;;;;9.93;2.45;;;;;;;;;;5096900;28;20373;-84
2024/01/23 12:25:52;;;;;;;11.20;2.65;;;;;;;;;;5096962;28;20028;-83
2024/01/23 12:28:18;;;;;;;10.27;2.90;;;;;;;;;;5096721;28;20027;-83
2024/01/23 12:30:44;;;;;;;10.57;2.60;;;;;;;;;;5096546;28;20438;-83
2024/01/23 12:33:14;;;;;;;7.45;3.10;;;;;;;;;;5096386;28;20024;-82
2024/01/23 12:35:40;;;;;;;12.00;2.97;;;;;;;;;;5096656;28;20094;-82
2024/01/23 12:38:05;;;;;;;9.15;2.58;;;;;;;;;;5096376;28;20012;-83
2024/01/23 12:40:31;;;;;;;10.82;2.53;;;;;;;;;;5078177;28;20023;-83
2024/01/23 12:42:56;;;;;;;9.15;2.38;;;;;;;;;;5096115;28;20024;-84
2024/01/23 12:45:23;;;;;;;10.30;1.98;;;;;;;;;;5096083;28;20031;-82
2024/01/23 12:47:50;;;;;;;6.05;2.30;;;;;;;;;;5095856;28;20020;-82
2024/01/23 12:50:20;;;;;;;9.15;2.45;;;;;;;;;;5077764;28;20016;-82
2024/01/23 12:52:50;;;;;;;8.95;3.92;;;;;;;;;;5077660;28;20023;-83
2024/01/23 12:55:15;;;;;;;6.78;2.25;;;;;;;;;;5095784;28;20016;-85
2024/01/23 12:57:41;;;;;;;5.72;2.50;;;;;;;;;;5096055;28;20027;-83
2024/01/23 13:00:08;;;;;;;7.05;2.47;;;;;;;;;;5095712;28;20008;-83
2024/01/23 13:02:34;;;;;;;8.18;2.35;;;;;;;;;;5096410;28;20024;-83
2024/01/23 13:04:59;;;;;;;7.47;2.30;;;;;;;;;;5096935;28;20077;-83
2024/01/23 13:07:24;;;;;;;9.57;3.03;;;;;;;;;;5078558;28;20353;-82
2024/01/23 13:09:50;;;;;;;7.85;2.13;;;;;;;;;;5096597;28;20107;-81
2024/01/23 13:12:15;;;;;;;7.07;2.72;;;;;;;;;;5096854;28;20350;-82
2024/01/23 13:14:40;;;;;;;8.02;2.10;;;;;;;;;;5096131;28;20016;-83
2024/01/23 13:17:06;;;;;;;6.88;2.13;;;;;;;;;;5094163;28;20012;-83
2024/01/23 13:19:32;;;;;;;9.18;2.05;;;;;;;;;;5094849;28;20016;-83
2024/01/23 13:21:58;;;;;;;14.07;3.20;;;;;;;;;;5096079;28;20020;-84
2024/01/23 13:24:23;;;;;;;9.50;2.40;;;;;;;;;;5095795;28;20365;-83
2024/01/23 13:26:48;;;;;;;8.27;2.65;;;;;;;;;;5095280;28;20047;-84
2024/01/23 13:29:14;;;;;;;11.13;3.00;;;;;;;;;;5077536;28;20051;-83
2024/01/23 13:31:40;;;;;;;9.70;3.05;;;;;;;;;;5095124;28;20429;-84
2024/01/23 13:34:06;;;;;;;9.00;2.92;;;;;;;;;;5095328;28;20070;-83
2024/01/23 13:36:34;;;;;;;8.90;2.47;;;;;;;;;;5094987;28;20040;-82
2024/01/23 13:38:59;;;;;;;8.80;2.72;;;;;;;;;;5095225;28;20107;-82
2024/01/23 13:41:25;;;;;;;11.32;2.88;;;;;;;;;;5095035;28;20051;-82
2024/01/23 13:43:50;;;;;;;17.02;3.97;;;;;;;;;;5094882;28;20384;-83
2024/01/23 13:46:16;;;;;;;14.02;3.63;;;;;;;;;;5094938;28;20435;-83
2024/01/23 13:48:41;;;;;;;9.30;3.42;;;;;;;;;;5094925;28;20103;-83
2024/01/23 13:51:07;;;;;;;10.82;3.50;;;;;;;;;;5094892;28;20020;-83
2024/01/23 13:53:32;;;;;;;12.15;3.72;;;;;;;;;;5076955;28;20028;-84
2024/01/23 13:55:58;;;;;;;14.23;3.65;;;;;;;;;;5077259;28;20016;-82
2024/01/23 13:58:26;;;;;;;15.02;3.58;;;;;;;;;;5095307;28;20024;-83
2024/01/23 14:00:51;;;;;;;17.40;3.90;;;;;;;;;;5095257;28;20036;-83
2024/01/23 14:03:16;;;;;;;10.95;3.13;;;;;;;;;;5076700;28;20032;-83
2024/01/23 14:05:42;;;;;;;10.75;3.25;;;;;;;;;;5094396;28;20377;-83
2024/01/23 14:08:07;;;;;;;10.75;3.40;;;;;;;;;;5076365;28;20111;-83
2024/01/23 14:10:34;;;;;;;14.13;3.72;;;;;;;;;;5094316;28;20465;-82
2024/01/23 14:12:59;;;;;;;9.52;3.38;;;;;;;;;;5094577;28;20429;-82
2024/01/23 14:15:24;;;;;;;9.70;3.65;;;;;;;;;;5094194;28;20030;-83
2024/01/23 14:17:50;;;;;;;11.27;3.60;;;;;;;;;;5094451;28;20024;-83
2024/01/23 14:20:15;;;;;;;17.33;4.45;;;;;;;;;;5094419;28;20027;-83
2024/01/23 14:22:43;;;;;;;11.75;4.22;;;;;;;;;;5094801;28;20423;-84
2024/01/23 14:25:12;;;;;;;16.67;4.13;;;;;;;;;;5094506;28;20069;-83